CheckWX is a tool to help pilots better visualize weather data.  It is not intended as a substitute for an official pre-flight weather briefing.

15:09:03 UTC

KFMH TAF
Cape Cod Coast Guard Air Station Airport
Falmouth, Massachusetts, USA
KFMH 191124Z 1912/2012 32003KT 5SM -SHRA BR OVC003 FM191300 26005KT 5SM BR BKN008 FM192000 28004KT P6SM BKN025 FM200500 35003KT 5SM BR VCSH BKN020 FM200800 36004KT 5SM BR BKN020

Nov-19@
12:00 UTC

Nov-19 @ 12:00 UTC

Nov-19@
13:00 UTC

Nov-19 @ 13:00 UTC

KFMH 191124Z 1912/2012 32003KT 5SM -SHRA BR OVC003

Expired

Wind
  • 320° at 3 KTS
Conditions
Light Rain, Mist
Cloud Levels
  • Overcast at 300' AGL

Nov-19@
13:00 UTC

Nov-19 @ 13:00 UTC

Nov-19@
20:00 UTC

Nov-19 @ 20:00 UTC

FM191300 26005KT 5SM BR BKN008

From

From Standard forecast or significant change

Wind
  • 260° at 5 KTS
Conditions
Mist
Cloud Levels
  • Broken at 800' AGL

Nov-19@
20:00 UTC

Nov-19 @ 20:00 UTC

Nov-20@
05:00 UTC

Nov-20 @ 05:00 UTC

FM192000 28004KT P6SM BKN025

From

From Standard forecast or significant change

Wind
  • 280° at 4 KTS
Cloud Levels
  • Broken at 2,500' AGL

Nov-20@
05:00 UTC

Nov-20 @ 05:00 UTC

Nov-20@
08:00 UTC

Nov-20 @ 08:00 UTC

FM200500 35003KT 5SM BR VCSH BKN020

From

From Standard forecast or significant change

Wind
  • 350° at 3 KTS
Conditions
Mist
Cloud Levels
  • Broken at 2,000' AGL

Nov-20@
08:00 UTC

Nov-20 @ 08:00 UTC

Nov-20@
12:00 UTC

Nov-20 @ 12:00 UTC

FM200800 36004KT 5SM BR BKN020

From

From Standard forecast or significant change

Wind
  • 360° at 4 KTS
Conditions
Mist
Cloud Levels
  • Broken at 2,000' AGL